Time;durP1;ratioP1;P1;durP2;ratioP2;P2;SDS_P1;SDS_P2;PMS_P1;PMS_P2;Temp;Humidity;BMP_temperature;BMP_pressure;BME280_temperature;BME280_humidity;BME280_pressure;Samples;Min_cycle;Max_cycle;Signal;HPM_P1;HPM_P2
2022/04/11 00:02:01;;;;;;;;;;;;;;;16.24;35.15;100871.44;143742;982;45015;-82
2022/04/11 00:04:28;;;;;;;;;;;;;;;16.24;36.07;100871.44;143735;981;47012;-81
2022/04/11 00:06:55;;;;;;;;;;;;;;;16.20;35.37;100868.34;143738;978;46012;-82
2022/04/11 00:09:21;;;;;;;;;;;;;;;16.21;35.90;100873.53;143738;984;45935;-81
2022/04/11 00:11:47;;;;;;;;;;;;;;;16.17;36.08;100876.91;143722;981;62002;-81
2022/04/11 00:14:14;;;;;;;;;;;;;;;16.17;35.77;100874.22;143735;982;47012;-83
2022/04/11 00:16:40;;;;;;;;;;;;;;;16.19;35.82;100877.53;143740;978;46004;-82
2022/04/11 00:19:08;;;;;;;;;;;;;;;16.12;36.06;100880.34;143734;983;47010;-82
2022/04/11 00:21:35;;;;;;;;;;;;;;;16.09;36.40;100885.41;143743;982;45014;-81
2022/04/11 00:24:01;;;;;;;;;;;;;;;16.08;35.86;100883.75;143739;982;46013;-81
2022/04/11 00:26:27;;;;;;;;;;;;;;;16.14;35.95;100893.66;143740;977;46004;-81
2022/04/11 00:28:54;;;;;;;;;;;;;;;16.16;36.11;100888.81;143740;984;45935;-80
2022/04/11 00:31:20;;;;;;;;;;;;;;;16.22;35.69;100896.03;143733;973;48002;-82
2022/04/11 00:33:46;;;;;;;;;;;;;;;16.17;35.32;100899.44;143740;981;45938;-81
2022/04/11 00:36:13;;;;;;;;;;;;;;;16.10;35.43;100893.28;143739;978;46004;-81
2022/04/11 00:38:39;;;;;;;;;;;;;;;16.07;35.25;100901.87;143740;984;45935;-81
2022/04/11 00:41:05;;;;;;;;;;;;;;;16.02;35.32;100918.00;143743;981;45014;-81
2022/04/11 00:43:32;;;;;;;;;;;;;;;15.98;35.71;100923.03;143738;982;47012;-82
2022/04/11 00:45:59;;;;;;;;;;;;;;;16.03;35.92;100916.97;143741;978;45017;-82
2022/04/11 00:48:25;;;;;;;;;;;;;;;16.00;35.59;100926.34;143740;983;45936;-81
2022/04/11 00:50:53;;;;;;;;;;;;;;;15.93;35.43;100931.06;143736;982;47002;-81
2022/04/11 00:53:20;;;;;;;;;;;;;;;15.91;35.35;100933.16;143739;982;45937;-82
2022/04/11 00:55:47;;;;;;;;;;;;;;;15.93;35.16;100939.19;143739;977;46018;-81
2022/04/11 00:58:21;;;;;;;;;;;;;;;15.91;35.31;100944.81;143739;984;45935;-82
2022/04/11 01:00:50;;;;;;;;;;;;;;;15.91;35.23;100952.13;143737;982;46010;-81
2022/04/11 01:03:16;;;;;;;;;;;;;;;15.94;35.01;100954.38;143738;981;46013;-80
2022/04/11 01:05:42;;;;;;;;;;;;;;;15.87;35.06;100965.31;143739;978;45941;-81
2022/04/11 01:08:09;;;;;;;;;;;;;;;15.82;34.78;100975.09;143738;984;45935;-82
2022/04/11 01:10:36;;;;;;;;;;;;;;;15.83;34.99;100969.47;143742;981;45014;-82
2022/04/11 01:13:03;;;;;;;;;;;;;;;15.88;34.82;100974.25;143739;982;45937;-82
2022/04/11 01:15:28;;;;;;;;;;;;;;;15.87;35.15;100972.59;143738;978;46012;-80
2022/04/11 01:17:55;;;;;;;;;;;;;;;15.88;34.73;100985.91;143723;983;50006;-81
2022/04/11 01:20:21;;;;;;;;;;;;;;;15.87;34.86;100988.84;143742;973;45014;-81
2022/04/11 01:22:48;;;;;;;;;;;;;;;15.86;35.21;100982.59;143737;982;46010;-81
2022/04/11 01:25:15;;;;;;;;;;;;;;;15.79;35.04;100983.72;143740;978;45016;-81
2022/04/11 01:27:42;;;;;;;;;;;;;;;15.76;34.81;100983.09;143739;984;45935;-81
2022/04/11 01:30:09;;;;;;;;;;;;;;;15.76;34.29;100984.97;143742;982;45014;-81
2022/04/11 01:32:36;;;;;;;;;;;;;;;15.74;34.52;100977.09;143738;982;46026;-81
2022/04/11 01:35:03;;;;;;;;;;;;;;;15.73;34.32;100985.41;143739;978;46004;-81
2022/04/11 01:37:29;;;;;;;;;;;;;;;15.73;34.07;100990.84;143733;984;50010;-81
2022/04/11 01:39:55;;;;;;;;;;;;;;;15.75;34.24;100986.88;143738;981;47003;-81
2022/04/11 01:42:22;;;;;;;;;;;;;;;15.73;34.39;100990.84;143738;982;48012;-82
2022/04/11 01:44:48;;;;;;;;;;;;;;;15.74;34.74;100987.91;143735;978;47004;-81
2022/04/11 01:47:14;;;;;;;;;;;;;;;15.71;35.60;100988.38;143735;983;48011;-81
2022/04/11 01:49:41;;;;;;;;;;;;;;;15.63;35.36;100982.44;143740;982;47002;-82
2022/04/11 01:52:07;;;;;;;;;;;;;;;15.63;35.86;100982.44;143733;982;48018;-81
2022/04/11 01:54:34;;;;;;;;;;;;;;;15.65;35.69;100988.44;143739;978;46004;-81
2022/04/11 01:57:00;;;;;;;;;;;;;;;15.72;35.92;100997.31;143732;984;48010;-81
2022/04/11 01:59:26;;;;;;;;;;;;;;;15.70;35.51;100996.72;143741;982;47002;-82
2022/04/11 02:01:53;;;;;;;;;;;;;;;15.65;35.29;101000.09;143737;982;47012;-82
2022/04/11 02:04:19;;;;;;;;;;;;;;;15.63;35.49;101014.91;143736;977;47004;-82
2022/04/11 02:06:45;;;;;;;;;;;;;;;15.61;35.55;101013.25;143739;984;45935;-81
2022/04/11 02:09:12;;;;;;;;;;;;;;;15.62;35.39;101030.31;143741;982;46010;-81
2022/04/11 02:11:38;;;;;;;;;;;;;;;15.53;35.30;101027.06;143734;973;47012;-83
2022/04/11 02:14:05;;;;;;;;;;;;;;;15.52;35.35;101028.16;143739;978;46014;-80
2022/04/11 02:16:31;;;;;;;;;;;;;;;15.49;35.49;101034.00;143735;984;47010;-81
2022/04/11 02:18:57;;;;;;;;;;;;;;;15.50;35.20;101032.97;143738;981;47002;-81
2022/04/11 02:21:23;;;;;;;;;;;;;;;15.47;34.84;101033.41;143738;971;46029;-81
2022/04/11 02:23:50;;;;;;;;;;;;;;;15.51;34.96;101039.19;143737;978;47004;-82
2022/04/11 02:26:16;;;;;;;;;;;;;;;15.53;35.41;101034.38;143739;984;45935;-80
2022/04/11 02:28:42;;;;;;;;;;;;;;;15.52;35.28;101038.16;143741;982;46013;-81
2022/04/11 02:31:09;;;;;;;;;;;;;;;15.45;35.77;101039.03;143732;982;47005;-82
2022/04/11 02:33:35;;;;;;;;;;;;;;;15.49;35.56;101052.12;143739;977;46016;-81
2022/04/11 02:36:02;;;;;;;;;;;;;;;15.48;35.13;101048.59;143738;984;46010;-81
2022/04/11 02:38:28;;;;;;;;;;;;;;;15.43;35.33;101051.97;143739;982;47002;-81
2022/04/11 02:40:54;;;;;;;;;;;;;;;15.43;34.96;101049.28;143738;981;46012;-81
2022/04/11 02:43:20;;;;;;;;;;;;;;;15.46;34.29;101054.22;143737;978;47004;-81
2022/04/11 02:45:47;;;;;;;;;;;;;;;15.46;34.24;101065.03;143739;984;45936;-80
2022/04/11 02:48:13;;;;;;;;;;;;;;;15.47;34.24;101079.44;143735;981;47011;-82
2022/04/11 02:50:39;;;;;;;;;;;;;;;15.45;34.54;101078.81;143736;980;47012;-81
2022/04/11 02:53:06;;;;;;;;;;;;;;;15.47;34.20;101079.44;143736;969;46031;-82
2022/04/11 02:55:32;;;;;;;;;;;;;;;15.49;34.40;101081.91;143724;983;54006;-80
2022/04/11 02:57:58;;;;;;;;;;;;;;;15.48;34.85;101097.31;143734;982;48002;-82
2022/04/11 03:00:24;;;;;;;;;;;;;;;15.50;34.18;101099.78;143735;982;47012;-80
2022/04/11 03:02:50;;;;;;;;;;;;;;;15.53;34.59;101102.06;143740;966;46004;-82
2022/04/11 03:05:17;;;;;;;;;;;;;;;15.51;34.60;101109.56;143735;984;47010;-81
2022/04/11 03:07:43;;;;;;;;;;;;;;;15.51;34.21;101110.41;143737;982;47002;-82
2022/04/11 03:10:09;;;;;;;;;;;;;;;15.55;34.17;101116.22;143737;981;47012;-81
2022/04/11 03:12:36;;;;;;;;;;;;;;;15.53;34.58;101121.84;143734;978;48004;-80
2022/04/11 03:15:03;;;;;;;;;;;;;;;15.51;34.63;101115.00;143737;984;47010;-82
2022/04/11 03:17:29;;;;;;;;;;;;;;;15.45;34.54;101122.94;143741;981;46002;-82
2022/04/11 03:19:55;;;;;;;;;;;;;;;15.40;33.66;101128.22;143737;982;47012;-82
2022/04/11 03:22:26;;;;;;;;;;;;;;;15.41;34.11;101129.03;143737;978;48004;-82
2022/04/11 03:24:59;;;;;;;;;;;;;;;15.41;33.87;101127.16;143738;983;46002;-81
2022/04/11 03:27:25;;;;;;;;;;;;;;;15.42;33.99;101133.38;143736;974;48014;-81
2022/04/11 03:29:52;;;;;;;;;;;;;;;15.43;33.59;101133.19;143736;982;47012;-81
2022/04/11 03:32:18;;;;;;;;;;;;;;;15.39;33.93;101137.38;143735;977;47004;-81
2022/04/11 03:34:44;;;;;;;;;;;;;;;15.37;34.10;101134.06;143739;984;45935;-81
2022/04/11 03:37:10;;;;;;;;;;;;;;;15.41;34.16;101140.69;143734;982;49002;-82
2022/04/11 03:39:37;;;;;;;;;;;;;;;15.40;34.67;101130.06;143740;973;46027;-82
2022/04/11 03:42:03;;;;;;;;;;;;;;;15.38;34.28;101149.25;143738;978;47004;-81
2022/04/11 03:44:29;;;;;;;;;;;;;;;15.43;34.08;101138.59;143736;984;46010;-82
2022/04/11 03:46:56;;;;;;;;;;;;;;;15.40;33.77;101141.75;143740;981;46003;-82
2022/04/11 03:49:22;;;;;;;;;;;;;;;15.37;33.82;101153.00;143735;982;50012;-81
2022/04/11 03:51:48;;;;;;;;;;;;;;;15.37;34.01;101149.44;143737;978;46004;-81
2022/04/11 03:54:15;;;;;;;;;;;;;;;15.31;33.91;101156.56;143736;983;47011;-82
2022/04/11 03:56:41;;;;;;;;;;;;;;;15.35;34.40;101162.41;143741;982;46002;-81
2022/04/11 03:59:07;;;;;;;;;;;;;;;15.34;34.18;101158.84;143737;982;47012;-83
2022/04/11 04:01:34;;;;;;;;;;;;;;;15.35;34.31;101163.22;143722;977;52013;-82
2022/04/11 04:04:00;;;;;;;;;;;;;;;15.36;34.29;101170.28;143735;984;48002;-82
2022/04/11 04:06:26;;;;;;;;;;;;;;;15.37;34.25;101171.09;143745;982;46002;-81
2022/04/11 04:08:53;;;;;;;;;;;;;;;15.32;33.94;101169.06;143739;982;45938;-81
2022/04/11 04:11:19;;;;;;;;;;;;;;;15.22;34.74;101176.84;143740;977;45016;-83
2022/04/11 04:13:45;;;;;;;;;;;;;;;15.15;34.99;101168.78;143738;984;45935;-81
2022/04/11 04:16:12;;;;;;;;;;;;;;;15.10;35.34;101179.41;143743;982;45014;-81
2022/04/11 04:18:38;;;;;;;;;;;;;;;15.13;35.47;101173.56;143740;982;45012;-81
2022/04/11 04:21:04;;;;;;;;;;;;;;;15.08;35.28;101190.47;143737;978;46941;-80
2022/04/11 04:23:30;;;;;;;;;;;;;;;15.02;35.42;101191.31;143739;984;45936;-81
2022/04/11 04:25:57;;;;;;;;;;;;;;;15.03;35.16;101197.53;143742;982;45014;-82
2022/04/11 04:28:23;;;;;;;;;;;;;;;14.98;35.56;101204.47;143731;982;48012;-80
2022/04/11 04:30:50;;;;;;;;;;;;;;;14.96;35.47;101200.28;143737;978;47004;-81
2022/04/11 04:33:16;;;;;;;;;;;;;;;14.87;35.93;101207.00;143738;983;46017;-81
2022/04/11 04:35:42;;;;;;;;;;;;;;;14.86;36.10;101211.56;143742;984;45010;-81
2022/04/11 04:38:09;;;;;;;;;;;;;;;14.89;36.46;101216.56;143730;985;48003;-82
2022/04/11 04:40:35;;;;;;;;;;;;;;;14.87;36.12;101225.94;143734;981;47002;-82
2022/04/11 04:43:01;;;;;;;;;;;;;;;14.92;36.39;101220.69;143740;984;45931;-81
2022/04/11 04:45:28;;;;;;;;;;;;;;;14.94;36.49;101230.28;143741;984;46000;-83
2022/04/11 04:47:54;;;;;;;;;;;;;;;14.96;36.21;101230.03;143732;986;47010;-82
2022/04/11 04:50:20;;;;;;;;;;;;;;;14.96;36.37;101235.44;143739;982;45937;-83
2022/04/11 04:52:47;;;;;;;;;;;;;;;14.89;36.35;101232.78;143738;984;45011;-83
2022/04/11 04:55:13;;;;;;;;;;;;;;;14.91;36.02;101244.22;143742;985;45010;-82
2022/04/11 04:57:39;;;;;;;;;;;;;;;14.93;35.90;101254.81;143739;986;45933;-83
2022/04/11 05:00:07;;;;;;;;;;;;;;;14.90;36.13;101255.25;143733;982;47002;-82
2022/04/11 05:02:37;;;;;;;;;;;;;;;14.91;35.80;101254.22;143738;985;45932;-83
2022/04/11 05:05:07;;;;;;;;;;;;;;;14.94;35.77;101265.44;143740;986;47000;-81
2022/04/11 05:07:33;;;;;;;;;;;;;;;14.91;35.45;101260.44;143731;985;52002;-82
2022/04/11 05:10:00;;;;;;;;;;;;;;;14.99;35.26;101270.19;143738;981;47002;-82
2022/04/11 05:12:27;;;;;;;;;;;;;;;15.04;35.56;101273.09;143735;986;46008;-82
2022/04/11 05:14:53;;;;;;;;;;;;;;;15.07;35.23;101271.81;143738;985;47000;-82
2022/04/11 05:17:20;;;;;;;;;;;;;;;15.10;34.23;101276.81;143739;985;46010;-84
2022/04/11 05:19:46;;;;;;;;;;;;;;;15.13;33.79;101274.50;143733;974;47996;-82
2022/04/11 05:22:12;;;;;;;;;;;;;;;15.21;33.52;101278.81;143728;984;49006;-82
2022/04/11 05:24:39;;;;;;;;;;;;;;;15.26;33.42;101270.09;143738;981;48002;-81
2022/04/11 05:27:05;;;;;;;;;;;;;;;15.37;33.70;101272.09;143738;982;46012;-83
2022/04/11 05:29:31;;;;;;;;;;;;;;;15.42;33.84;101285.81;143735;978;47004;-82
2022/04/11 05:31:58;;;;;;;;;;;;;;;15.49;32.88;101293.06;143737;983;46002;-83
2022/04/11 05:34:24;;;;;;;;;;;;;;;15.56;33.26;101302.78;143741;982;47002;-82
2022/04/11 05:36:50;;;;;;;;;;;;;;;15.52;32.07;101301.59;143734;972;50004;-83
2022/04/11 05:39:16;;;;;;;;;;;;;;;15.57;32.28;101299.03;143739;977;46004;-82
2022/04/11 05:41:43;;;;;;;;;;;;;;;15.63;32.46;101304.63;143734;981;49937;-84
2022/04/11 05:44:16;;;;;;;;;;;;;;;15.72;32.40;101315.00;143742;982;45015;-83
2022/04/11 05:46:43;;;;;;;;;;;;;;;15.84;32.40;101322.41;143737;981;46008;-83
2022/04/11 05:49:09;;;;;;;;;;;;;;;15.89;31.54;101325.31;143736;978;47004;-83
2022/04/11 05:51:35;;;;;;;;;;;;;;;15.95;31.29;101326.31;143735;984;46010;-84
2022/04/11 05:54:01;;;;;;;;;;;;;;;15.98;30.84;101323.19;143734;981;47002;-83
2022/04/11 05:56:28;;;;;;;;;;;;;;;16.04;30.25;101331.25;143735;982;47012;-83
2022/04/11 05:58:54;;;;;;;;;;;;;;;16.10;30.32;101336.84;143738;978;47004;-82
2022/04/11 06:01:20;;;;;;;;;;;;;;;16.12;30.52;101335.56;143732;983;48010;-82
2022/04/11 06:03:47;;;;;;;;;;;;;;;16.14;30.66;101332.66;143738;982;47002;-83
2022/04/11 06:06:15;;;;;;;;;;;;;;;16.19;30.18;101336.34;143731;982;48004;-83
2022/04/11 06:08:41;;;;;;;;;;;;;;;16.26;30.87;101335.47;143737;977;47004;-82
2022/04/11 06:11:07;;;;;;;;;;;;;;;16.25;29.89;101331.94;143739;984;45937;-83
2022/04/11 06:13:34;;;;;;;;;;;;;;;16.30;30.93;101333.97;143739;982;47002;-82
2022/04/11 06:16:01;;;;;;;;;;;;;;;16.39;30.69;101329.09;143735;981;47013;-83
2022/04/11 06:18:28;;;;;;;;;;;;;;;16.46;30.49;101324.44;143739;978;46004;-82
2022/04/11 06:20:54;;;;;;;;;;;;;;;16.58;30.77;101324.56;143739;984;45938;-83
2022/04/11 06:23:20;;;;;;;;;;;;;;;16.62;29.59;101328.44;143739;981;47002;-82
2022/04/11 06:25:47;;;;;;;;;;;;;;;16.54;28.68;101324.16;143737;982;46012;-82
2022/04/11 06:28:13;;;;;;;;;;;;;;;16.52;28.56;101337.09;143734;978;47004;-82
2022/04/11 06:30:39;;;;;;;;;;;;;;;16.51;28.66;101338.16;143738;977;46027;-82
2022/04/11 06:33:06;;;;;;;;;;;;;;;16.49;28.89;101343.81;143741;982;46002;-81
2022/04/11 06:35:32;;;;;;;;;;;;;;;16.50;29.44;101342.75;143737;974;46012;-81
2022/04/11 06:37:58;;;;;;;;;;;;;;;16.55;28.52;101350.22;143737;977;48004;-81
2022/04/11 06:40:24;;;;;;;;;;;;;;;16.60;28.55;101353.09;143736;984;47010;-82
2022/04/11 06:42:51;;;;;;;;;;;;;;;16.64;28.76;101354.31;143739;982;47002;-82
2022/04/11 06:45:17;;;;;;;;;;;;;;;16.69;28.51;101361.78;143739;981;45936;-83
2022/04/11 06:47:46;;;;;;;;;;;;;;;16.73;28.59;101354.84;143738;978;46004;-82
2022/04/11 06:50:12;;;;;;;;;;;;;;;16.82;28.50;101358.94;143739;984;45937;-82
2022/04/11 06:52:38;;;;;;;;;;;;;;;16.89;27.80;101363.47;143741;981;46002;-81
2022/04/11 06:55:05;;;;;;;;;;;;;;;16.90;27.51;101357.78;143734;982;47012;-84
2022/04/11 06:57:31;;;;;;;;;;;;;;;16.91;28.14;101366.78;143736;978;46004;-82
2022/04/11 06:59:58;;;;;;;;;;;;;;;16.93;28.55;101364.69;143738;984;46010;-83
2022/04/11 07:02:24;;;;;;;;;;;;;;;17.03;27.19;101375.84;143741;973;46014;-81
2022/04/11 07:04:50;;;;;;;;;;;;;;;17.11;27.19;101358.44;143739;982;45935;-83
2022/04/11 07:07:16;;;;;;;;;;;;;;;17.21;26.60;101382.34;143723;978;50004;-81
2022/04/11 07:09:43;;;;;;;;;;;;;;;17.23;25.84;101358.50;143739;984;45937;-81
2022/04/11 07:12:09;;;;;;;;;;;;;;;17.26;25.49;101367.03;143741;982;46002;-83
2022/04/11 07:14:36;;;;;;;;;;;;;;;17.35;24.58;101364.00;143735;981;47010;-82
2022/04/11 07:17:02;;;;;;;;;;;;;;;17.38;23.65;101377.13;143738;978;46004;-82
2022/04/11 07:19:28;;;;;;;;;;;;;;;17.40;23.50;101386.69;143739;984;45938;-83
2022/04/11 07:21:55;;;;;;;;;;;;;;;17.50;23.81;101371.75;143740;982;47002;-83
2022/04/11 07:24:21;;;;;;;;;;;;;;;17.54;23.61;101386.53;143739;982;45935;-81
2022/04/11 07:26:47;;;;;;;;;;;;;;;17.55;23.09;101375.44;143730;978;51004;-82
2022/04/11 07:29:13;;;;;;;;;;;;;;;17.61;23.08;101390.00;143739;984;45938;-84
2022/04/11 07:31:39;;;;;;;;;;;;;;;17.75;24.03;101387.91;143742;982;45014;-84
2022/04/11 07:34:06;;;;;;;;;;;;;;;17.88;23.74;101397.78;143731;982;47012;-82
2022/04/11 07:36:32;;;;;;;;;;;;;;;17.94;22.93;101393.28;143735;978;47013;-82
2022/04/11 07:38:58;;;;;;;;;;;;;;;17.92;23.45;101404.41;143739;984;45937;-81
2022/04/11 07:41:25;;;;;;;;;;;;;;;17.96;22.19;101388.47;143741;982;46010;-82
2022/04/11 07:43:53;;;;;;;;;;;;;;;17.94;23.16;101402.28;143737;982;47012;-82
2022/04/11 07:46:19;;;;;;;;;;;;;;;17.86;22.71;101399.87;143737;978;47004;-82
2022/04/11 07:48:46;;;;;;;;;;;;;;;17.88;23.20;101400.47;143734;984;47010;-82
2022/04/11 07:51:12;;;;;;;;;;;;;;;17.88;23.58;101398.63;143740;982;47002;-82
2022/04/11 07:53:38;;;;;;;;;;;;;;;17.97;23.90;101410.00;143725;981;53012;-83
2022/04/11 07:56:05;;;;;;;;;;;;;;;17.98;23.93;101399.97;143738;978;47004;-82
2022/04/11 07:58:31;;;;;;;;;;;;;;;17.97;23.61;101407.28;143733;981;47011;-81
2022/04/11 08:00:57;;;;;;;;;;;;;;;17.95;23.39;101413.97;143738;981;47004;-81
2022/04/11 08:03:27;;;;;;;;;;;;;;;18.07;24.78;101424.91;143731;982;52012;-76
2022/04/11 08:05:53;;;;;;;;;;;;;;;18.18;23.51;101424.97;143739;978;45940;-83
2022/04/11 08:08:20;;;;;;;;;;;;;;;18.26;23.51;101422.97;143735;972;46937;-82
2022/04/11 08:10:46;;;;;;;;;;;;;;;18.27;24.11;101421.91;143739;982;47002;-82
2022/04/11 08:13:12;;;;;;;;;;;;;;;18.25;23.70;101429.47;143734;982;47008;-83
2022/04/11 08:15:39;;;;;;;;;;;;;;;18.33;23.54;101435.41;143737;977;47004;-83
2022/04/11 08:18:05;;;;;;;;;;;;;;;18.44;23.10;101438.38;143732;984;48010;-82
2022/04/11 08:20:32;;;;;;;;;;;;;;;18.51;22.65;101435.56;143739;982;47002;-82
2022/04/11 08:22:59;;;;;;;;;;;;;;;18.50;21.82;101440.19;143731;972;50004;-82
2022/04/11 08:25:25;;;;;;;;;;;;;;;18.51;22.29;101447.28;143735;978;47004;-82
2022/04/11 08:27:51;;;;;;;;;;;;;;;18.45;22.84;101459.06;143739;984;45938;-81
2022/04/11 08:30:18;;;;;;;;;;;;;;;18.59;23.52;101463.25;143740;981;46002;-81
2022/04/11 08:32:48;;;;;;;;;;;;;;;18.57;23.45;101465.38;143728;975;48006;-81
2022/04/11 08:35:15;;;;;;;;;;;;;;;18.63;23.08;101483.47;143734;978;47004;-83
2022/04/11 08:37:41;;;;;;;;;;;;;;;18.58;22.54;101475.19;143742;982;45938;-82
2022/04/11 08:40:10;;;;;;;;;;;;;;;18.67;22.39;101474.84;143743;982;45014;-83
2022/04/11 08:42:40;;;;;;;;;;;;;;;18.74;22.22;101484.56;143739;982;45936;-82
2022/04/11 08:45:07;;;;;;;;;;;;;;;18.75;23.04;101494.37;143737;977;47004;-83
2022/04/11 08:47:33;;;;;;;;;;;;;;;18.80;22.26;101485.50;143735;984;47010;-81
2022/04/11 08:50:03;;;;;;;;;;;;;;;18.92;23.42;101489.06;143739;982;46011;-80
2022/04/11 08:52:30;;;;;;;;;;;;;;;19.03;22.57;101483.91;143739;981;45936;-82
2022/04/11 08:54:57;;;;;;;;;;;;;;;19.13;22.90;101497.75;143733;978;47004;-82
2022/04/11 08:57:23;;;;;;;;;;;;;;;19.20;22.51;101490.28;143739;984;45938;-82
2022/04/11 08:59:50;;;;;;;;;;;;;;;19.29;23.52;101485.31;143741;981;46002;-82
2022/04/11 09:02:16;;;;;;;;;;;;;;;19.42;22.58;101500.56;143739;982;45935;-81
2022/04/11 09:04:54;;;;;;;;;;;;;;;19.50;23.01;101500.22;143740;978;45017;-82
2022/04/11 09:07:21;;;;;;;;;;;;;;;19.54;23.38;101490.50;143738;983;46010;-82
2022/04/11 09:09:47;;;;;;;;;;;;;;;19.73;23.09;101486.75;143739;982;47002;-81
2022/04/11 09:12:14;;;;;;;;;;;;;;;19.73;22.33;101501.22;143739;969;45936;-84
2022/04/11 09:14:41;;;;;;;;;;;;;;;19.84;22.62;101496.81;143739;977;46004;-83
2022/04/11 09:17:09;;;;;;;;;;;;;;;19.94;23.59;101501.69;143738;984;45937;-82
2022/04/11 09:19:35;;;;;;;;;;;;;;;20.09;22.66;101504.69;143734;982;47002;-82
2022/04/11 09:22:03;;;;;;;;;;;;;;;20.14;21.85;101509.41;143739;981;46012;-82
2022/04/11 09:24:30;;;;;;;;;;;;;;;20.26;21.65;101504.72;143739;970;45939;-82
2022/04/11 09:26:57;;;;;;;;;;;;;;;20.23;21.67;101509.84;143739;984;46002;-83
2022/04/11 09:29:27;;;;;;;;;;;;;;;20.14;22.68;101506.69;143742;981;45014;-83
2022/04/11 09:31:53;;;;;;;;;;;;;;;20.28;22.79;101508.03;143738;982;46012;-83
2022/04/11 09:34:26;;;;;;;;;;;;;;;20.37;22.79;101511.22;143739;978;46004;-84
2022/04/11 09:36:53;;;;;;;;;;;;;;;20.38;22.58;101501.13;143736;983;47010;-82
2022/04/11 09:39:23;;;;;;;;;;;;;;;20.32;22.71;101529.38;143741;982;46002;-84
2022/04/11 09:41:50;;;;;;;;;;;;;;;20.28;23.13;101516.22;143740;982;45013;-83
2022/04/11 09:44:26;;;;;;;;;;;;;;;20.43;23.86;101501.19;143733;983;47004;-83
2022/04/11 09:46:53;;;;;;;;;;;;;;;20.48;23.74;101509.50;143735;982;47010;-82
2022/04/11 09:49:20;;;;;;;;;;;;;;;20.52;23.02;101507.94;143741;982;46002;-81
2022/04/11 09:52:20;;;;;;;;;;;;;;;20.57;22.45;101501.72;143737;981;45936;-82
2022/04/11 09:54:52;;;;;;;;;;;;;;;20.64;22.58;101507.87;143734;978;47004;-82
2022/04/11 09:57:18;;;;;;;;;;;;;;;20.63;22.48;101514.41;143739;984;45938;-82
2022/04/11 09:59:45;;;;;;;;;;;;;;;20.73;22.28;101516.47;143742;981;45014;-82
2022/04/11 10:02:17;;;;;;;;;;;;;;;20.85;22.42;101505.47;143734;974;46031;-82
2022/04/11 10:04:47;;;;;;;;;;;;;;;20.86;22.81;101516.16;143737;978;47004;-82
2022/04/11 10:07:14;;;;;;;;;;;;;;;21.00;23.53;101516.62;143738;984;45937;-81
2022/04/11 10:09:40;;;;;;;;;;;;;;;21.10;22.97;101518.69;143739;982;47002;-81
2022/04/11 10:12:08;;;;;;;;;;;;;;;21.22;22.51;101526.81;143736;982;46005;-82
2022/04/11 10:14:35;;;;;;;;;;;;;;;21.13;22.19;101515.47;143738;977;46004;-83
2022/04/11 10:17:02;;;;;;;;;;;;;;;21.13;22.12;101523.66;143739;984;45937;-81
2022/04/11 10:19:31;;;;;;;;;;;;;;;21.22;21.56;101524.06;143742;982;45015;-83
2022/04/11 10:22:04;;;;;;;;;;;;;;;21.33;21.85;101514.97;143739;981;45936;-82
2022/04/11 10:24:57;;;;;;;;;;;;;;;21.33;22.55;101517.69;143743;978;45016;-83
2022/04/11 10:27:25;;;;;;;;;;;;;;;21.35;21.28;101511.97;143738;981;46011;-83
2022/04/11 10:29:54;;;;;;;;;;;;;;;21.31;22.85;101521.75;143738;982;47002;-81
2022/04/11 10:32:21;;;;;;;;;;;;;;;21.42;22.50;101526.28;143738;968;46032;-84
2022/04/11 10:34:49;;;;;;;;;;;;;;;21.47;21.94;101531.00;143735;978;48013;-81
2022/04/11 10:37:16;;;;;;;;;;;;;;;21.49;23.11;101535.13;143738;973;46027;-82
2022/04/11 10:39:44;;;;;;;;;;;;;;;21.56;22.25;101534.13;143736;982;46014;-81
2022/04/11 10:42:14;;;;;;;;;;;;;;;21.55;22.10;101530.53;143737;982;46013;-82
2022/04/11 10:44:50;;;;;;;;;;;;;;;21.60;22.34;101530.66;143741;977;45016;-83
2022/04/11 10:47:21;;;;;;;;;;;;;;;21.75;23.38;101540.97;143737;973;47010;-81
2022/04/11 10:50:09;;;;;;;;;;;;;;;21.77;22.71;101529.75;143742;982;45015;-84
2022/04/11 10:52:41;;;;;;;;;;;;;;;21.80;23.42;101527.34;143739;982;45935;-82
2022/04/11 10:55:30;;;;;;;;;;;;;;;21.88;22.50;101527.97;143737;978;46012;-84
2022/04/11 10:57:57;;;;;;;;;;;;;;;21.95;22.32;101523.16;143739;984;45938;-84
2022/04/11 11:00:28;;;;;;;;;;;;;;;21.98;22.48;101530.00;143742;982;45014;-82
2022/04/11 11:03:04;;;;;;;;;;;;;;;21.89;23.36;101522.25;143739;982;45935;-81
2022/04/11 11:05:32;;;;;;;;;;;;;;;22.03;22.89;101522.69;143733;984;49004;-81
2022/04/11 11:08:29;;;;;;;;;;;;;;;22.03;22.74;101517.22;143737;984;46010;-81
2022/04/11 11:11:21;;;;;;;;;;;;;;;22.04;21.97;101521.59;143738;982;46002;-82
2022/04/11 11:13:47;;;;;;;;;;;;;;;22.13;23.35;101521.97;143739;981;45936;-82
2022/04/11 11:16:33;;;;;;;;;;;;;;;22.15;23.05;101519.00;143739;978;45940;-83
2022/04/11 11:19:18;;;;;;;;;;;;;;;22.09;22.46;101518.94;143737;984;47010;-83
2022/04/11 11:22:03;;;;;;;;;;;;;;;21.97;22.75;101529.19;143739;981;48002;-82
2022/04/11 11:24:29;;;;;;;;;;;;;;;21.96;22.37;101519.34;143739;982;45936;-82
2022/04/11 11:26:57;;;;;;;;;;;;;;;22.02;22.58;101520.22;143738;978;46005;-83
2022/04/11 11:29:49;;;;;;;;;;;;;;;22.09;22.01;101516.19;143738;984;46937;-82
2022/04/11 11:32:15;;;;;;;;;;;;;;;22.18;21.75;101516.56;143735;982;48006;-84
2022/04/11 11:34:43;;;;;;;;;;;;;;;22.32;21.67;101521.63;143736;982;47012;-82
2022/04/11 11:37:10;;;;;;;;;;;;;;;22.36;21.00;101517.28;143725;977;52004;-83
2022/04/11 11:39:38;;;;;;;;;;;;;;;22.38;21.02;101513.19;143738;972;46028;-81
2022/04/11 11:42:11;;;;;;;;;;;;;;;22.42;20.88;101510.78;143733;982;52014;-82
2022/04/11 11:44:47;;;;;;;;;;;;;;;22.48;21.89;101512.50;143739;982;45935;-82
2022/04/11 11:47:14;;;;;;;;;;;;;;;22.55;20.97;101515.03;143736;978;47004;-82
2022/04/11 11:49:47;;;;;;;;;;;;;;;22.58;21.22;101516.44;143739;984;45938;-82
2022/04/11 11:52:14;;;;;;;;;;;;;;;22.50;20.92;101520.47;143744;982;45014;-84
2022/04/11 11:54:42;;;;;;;;;;;;;;;22.51;20.70;101509.25;143736;982;47012;-82
2022/04/11 11:57:28;;;;;;;;;;;;;;;22.47;21.18;101507.31;143737;978;46012;-81
2022/04/11 11:59:55;;;;;;;;;;;;;;;22.50;20.98;101513.06;143738;984;46010;-81
2022/04/11 12:05:25;;;;;;;;;;;;;;;22.52;21.44;101508.16;143738;982;46004;-80
2022/04/11 12:08:14;;;;;;;;;;;;;;;22.58;20.50;101503.56;143728;977;50004;-81
2022/04/11 12:10:44;;;;;;;;;;;;;;;22.49;21.20;101497.72;143687;694;49026;-82
2022/04/11 12:13:11;;;;;;;;;;;;;;;22.58;21.27;101494.53;143732;979;50002;-81
2022/04/11 12:15:38;;;;;;;;;;;;;;;22.68;21.57;101494.59;143715;984;58012;-81
2022/04/11 12:18:05;;;;;;;;;;;;;;;22.69;19.76;101490.78;143735;976;47004;-80
2022/04/11 12:20:33;;;;;;;;;;;;;;;22.67;20.16;101488.31;143738;985;45934;-82
2022/04/11 12:23:04;;;;;;;;;;;;;;;22.72;20.71;101482.06;143740;980;46014;-80
2022/04/11 12:25:31;;;;;;;;;;;;;;;22.67;19.33;101469.16;143738;984;46012;-83
2022/04/11 12:28:32;;;;;;;;;;;;;;;22.65;19.05;101476.78;143738;975;46015;-80
2022/04/11 12:31:16;;;;;;;;;;;;;;;22.62;20.98;101484.69;143738;986;46002;-82
2022/04/11 12:33:44;;;;;;;;;;;;;;;22.60;21.79;101464.97;143734;980;47003;-80
2022/04/11 12:36:11;;;;;;;;;;;;;;;22.60;19.92;101474.00;143738;983;46013;-82
2022/04/11 12:38:56;;;;;;;;;;;;;;;22.66;21.18;101480.34;143738;976;46004;-81
2022/04/11 12:41:47;;;;;;;;;;;;;;;22.59;20.57;101482.50;143739;985;45934;-86
2022/04/11 12:44:16;;;;;;;;;;;;;;;22.58;19.37;101478.91;143738;979;46014;-82